Time;durP1;ratioP1;P1;durP2;ratioP2;P2;SDS_P1;SDS_P2;PMS_P1;PMS_P2;Temp;Humidity;BMP_temperature;BMP_pressure;BME280_temperature;BME280_humidity;BME280_pressure;Samples;Min_cycle;Max_cycle;Signal;HPM_P1;HPM_P2
2022/03/25 00:00:36;;;;;;;48.60;22.55;;;;;;;16.16;43.66;102852.44;5074882;28;20060;-53
2022/03/25 00:03:04;;;;;;;52.95;21.67;;;;;;;16.14;43.77;102854.50;5074907;28;20097;-55
2022/03/25 00:05:30;;;;;;;52.05;23.15;;;;;;;16.09;44.05;102865.00;5074609;28;20036;-54
2022/03/25 00:07:56;;;;;;;52.15;22.35;;;;;;;16.01;44.21;102866.72;5074232;28;20044;-54
2022/03/25 00:10:21;;;;;;;51.50;22.60;;;;;;;15.93;44.52;102863.28;5074617;28;20037;-54
2022/03/25 00:12:47;;;;;;;60.17;24.30;;;;;;;15.89;44.71;102857.41;5074845;28;20055;-55
2022/03/25 00:15:12;;;;;;;50.00;23.97;;;;;;;15.87;45.07;102860.25;5073893;28;20289;-54
2022/03/25 00:17:38;;;;;;;52.30;21.83;;;;;;;15.80;44.99;102856.59;5074495;28;20105;-55
2022/03/25 00:20:04;;;;;;;48.03;21.97;;;;;;;15.77;44.91;102857.78;5076041;28;20051;-52
2022/03/25 00:22:29;;;;;;;51.10;22.45;;;;;;;15.76;44.95;102863.38;5074674;28;20100;-53
2022/03/25 00:24:55;;;;;;;53.53;24.17;;;;;;;15.70;44.96;102856.03;5074309;28;20055;-54
2022/03/25 00:27:21;;;;;;;51.40;22.05;;;;;;;15.69;44.96;102857.03;5075491;28;20037;-54
2022/03/25 00:29:46;;;;;;;53.07;22.70;;;;;;;15.51;45.30;102863.56;5078929;28;20033;-54
2022/03/25 00:32:11;;;;;;;46.10;22.00;;;;;;;15.50;45.55;102864.59;5078432;28;20310;-52
2022/03/25 00:34:39;;;;;;;55.60;22.08;;;;;;;15.44;45.83;102870.66;5076214;28;20025;-53
2022/03/25 00:37:05;;;;;;;49.93;22.03;;;;;;;15.46;45.77;102868.66;5078641;28;20055;-52
2022/03/25 00:39:30;;;;;;;52.77;23.07;;;;;;;15.45;45.98;102861.56;5077016;28;20056;-56
2022/03/25 00:41:56;;;;;;;55.15;23.00;;;;;;;15.70;44.95;102859.53;5078570;28;20049;-53
2022/03/25 00:44:22;;;;;;;50.55;22.13;;;;;;;15.62;45.22;102862.31;5078384;28;20040;-52
2022/03/25 00:46:48;;;;;;;49.00;21.58;;;;;;;15.56;45.36;102861.16;5077195;28;20033;-54
2022/03/25 00:49:13;;;;;;;49.63;23.67;;;;;;;15.45;45.58;102862.41;5077347;28;20049;-53
2022/03/25 00:51:39;;;;;;;55.33;23.33;;;;;;;15.40;45.86;102863.97;5075508;28;20033;-55
2022/03/25 00:54:04;;;;;;;54.20;21.90;;;;;;;15.38;45.43;102860.59;5080778;28;20152;-53
2022/03/25 00:56:30;;;;;;;56.10;22.58;;;;;;;15.33;45.56;102862.00;5090919;28;20029;-56
2022/03/25 00:58:56;;;;;;;53.40;23.83;;;;;;;15.23;45.76;102863.22;5087443;28;20040;-55
2022/03/25 01:01:21;;;;;;;65.90;23.87;;;;;;;15.19;45.83;102863.59;5084038;28;20040;-55
2022/03/25 01:03:46;;;;;;;47.93;21.70;;;;;;;15.05;46.08;102862.47;5093401;28;20029;-56
2022/03/25 01:06:15;;;;;;;59.25;24.98;;;;;;;14.95;46.52;102863.72;5079780;28;20036;-54
2022/03/25 01:08:40;;;;;;;60.17;23.73;;;;;;;14.91;46.88;102865.91;5076658;28;20045;-55
2022/03/25 01:11:06;;;;;;;47.47;22.30;;;;;;;14.88;47.25;102860.88;5089258;28;20780;-51
2022/03/25 01:13:33;;;;;;;48.50;22.60;;;;;;;14.80;47.31;102859.03;5082308;28;20048;-54
2022/03/25 01:16:05;;;;;;;59.45;22.95;;;;;;;14.87;47.26;102853.81;5078614;28;20770;-51
2022/03/25 01:18:31;;;;;;;49.53;21.85;;;;;;;14.76;47.61;102868.50;5091025;28;20041;-51
2022/03/25 01:20:57;;;;;;;49.30;23.47;;;;;;;14.74;47.71;102863.25;5086571;28;20113;-52
2022/03/25 01:23:24;;;;;;;61.08;24.05;;;;;;;14.68;47.91;102863.94;5082830;28;20037;-51
2022/03/25 01:25:51;;;;;;;70.97;26.60;;;;;;;14.70;47.80;102859.22;5078105;28;20037;-55
2022/03/25 01:28:16;;;;;;;53.22;24.13;;;;;;;14.68;47.67;102863.09;5091960;28;20112;-54
2022/03/25 01:30:43;;;;;;;47.80;22.43;;;;;;;14.59;47.91;102857.72;5084300;28;20036;-52
2022/03/25 01:33:09;;;;;;;54.17;24.27;;;;;;;14.55;47.98;102855.56;5085623;28;20047;-55
2022/03/25 01:35:35;;;;;;;53.20;23.85;;;;;;;14.55;48.01;102853.72;5091977;28;20055;-55
2022/03/25 01:38:01;;;;;;;62.00;24.33;;;;;;;14.44;48.18;102849.53;5079310;28;20044;-54
2022/03/25 01:40:27;;;;;;;52.65;24.17;;;;;;;14.40;48.33;102850.03;5090384;28;20266;-51
2022/03/25 01:42:53;;;;;;;;;;;;;;;14.45;48.22;102850.38;5086020;28;20041;-54
2022/03/25 01:45:39;;;;;;;51.27;24.13;;;;;;;14.45;47.92;102840.44;5090475;28;19912;-54
2022/03/25 01:48:11;;;;;;;62.67;25.67;;;;;;;14.49;48.18;102844.47;5092845;28;20036;-52
2022/03/25 01:50:38;;;;;;;61.67;26.48;;;;;;;14.51;48.02;102849.69;5083830;28;20066;-54
2022/03/25 01:53:10;;;;;;;56.17;24.50;;;;;;;14.49;48.17;102840.94;5085438;28;20040;-53
2022/03/25 01:55:38;;;;;;;55.60;25.80;;;;;;;14.53;48.03;102847.66;5091297;28;20044;-50
2022/03/25 01:58:05;;;;;;;57.88;24.35;;;;;;;14.47;48.36;102843.78;5078771;28;20048;-52
2022/03/25 02:00:32;;;;;;;59.92;25.92;;;;;;;14.41;48.52;102843.63;5089535;28;20044;-53
2022/03/25 02:02:57;;;;;;;59.42;26.13;;;;;;;14.39;48.72;102835.75;5086765;28;20032;-53
2022/03/25 02:05:23;;;;;;;60.27;24.53;;;;;;;14.36;48.92;102837.94;5081990;28;20101;-54
2022/03/25 02:07:48;;;;;;;55.93;27.33;;;;;;;14.26;49.26;102836.28;5085605;28;20063;-51
2022/03/25 02:10:17;;;;;;;55.55;24.58;;;;;;;14.19;49.42;102833.44;5079951;28;20036;-53
2022/03/25 02:12:45;;;;;;;63.22;26.92;;;;;;;14.24;49.57;102843.69;5087395;28;20047;-52
2022/03/25 02:15:10;;;;;;;56.77;25.50;;;;;;;14.18;49.77;102842.53;5087344;28;20036;-54
2022/03/25 02:17:37;;;;;;;70.87;26.73;;;;;;;14.02;50.39;102840.69;5080498;28;20297;-54
2022/03/25 02:20:08;;;;;;;53.05;24.50;;;;;;;14.02;50.47;102848.75;5092054;28;20040;-53
2022/03/25 02:22:35;;;;;;;57.88;25.40;;;;;;;13.96;50.79;102844.06;5083096;28;20041;-53
2022/03/25 02:25:08;;;;;;;58.17;26.30;;;;;;;14.00;50.90;102852.63;5085970;28;20037;-53
2022/03/25 02:27:38;;;;;;;61.42;29.10;;;;;;;13.96;51.09;102854.81;5091008;28;20041;-54
2022/03/25 02:30:07;;;;;;;61.28;26.33;;;;;;;13.94;50.83;102854.13;5078915;28;20021;-51
2022/03/25 02:32:33;;;;;;;63.55;27.05;;;;;;;13.89;50.94;102841.19;5089806;28;20051;-49
2022/03/25 02:34:58;;;;;;;65.47;28.60;;;;;;;13.85;51.34;102842.56;5086004;28;20036;-54
2022/03/25 02:37:25;;;;;;;63.47;26.73;;;;;;;13.81;51.45;102838.50;5081679;28;20056;-55
2022/03/25 02:39:52;;;;;;;57.20;26.35;;;;;;;13.86;51.53;102836.16;5091536;28;20037;-53
2022/03/25 02:42:18;;;;;;;65.35;30.02;;;;;;;13.85;51.79;102839.00;5079253;28;20112;-52
2022/03/25 02:44:43;;;;;;;65.67;27.50;;;;;;;13.79;52.07;102840.50;5087123;28;20028;-53
2022/03/25 02:47:08;;;;;;;63.77;27.77;;;;;;;12.95;58.84;102835.13;5074950;28;20127;-54
2022/03/25 02:49:34;;;;;;;74.80;31.05;;;;;;;11.79;74.26;102848.66;5089494;28;20029;-53
2022/03/25 02:52:00;;;;;;;62.53;29.30;;;;;;;12.66;63.57;102839.03;5078915;28;20032;-53
2022/03/25 02:54:25;;;;;;;64.00;28.40;;;;;;;13.38;57.14;102843.13;5090249;28;20048;-53
2022/03/25 02:56:51;;;;;;;71.60;29.90;;;;;;;13.11;59.37;102845.94;5075550;28;20039;-54
2022/03/25 02:59:16;;;;;;;66.93;29.87;;;;;;;13.32;56.97;102845.47;5087629;28;20041;-53
2022/03/25 03:01:41;;;;;;;73.50;30.33;;;;;;;13.28;56.89;102837.91;5079732;28;20033;-53
2022/03/25 03:04:09;;;;;;;71.73;32.80;;;;;;;13.60;55.55;102837.13;5087267;28;20068;-57
2022/03/25 03:06:34;;;;;;;72.22;31.63;;;;;;;13.68;54.69;102835.47;5089267;28;20040;-54
2022/03/25 03:09:00;;;;;;;71.60;32.03;;;;;;;13.74;54.63;102837.50;5085218;28;20065;-50
2022/03/25 03:11:28;;;;;;;70.73;30.77;;;;;;;13.60;55.03;102847.06;5081972;28;20041;-51
2022/03/25 03:13:53;;;;;;;74.70;30.25;;;;;;;13.60;55.17;102839.00;5091708;28;20064;-52
2022/03/25 03:16:19;;;;;;;72.37;33.77;;;;;;;13.52;55.53;102839.00;5079464;28;20033;-54
2022/03/25 03:18:44;;;;;;;74.65;33.78;;;;;;;13.41;56.47;102840.13;5087377;28;20045;-54
2022/03/25 03:21:10;;;;;;;81.47;33.47;;;;;;;13.36;56.83;102831.69;5086162;28;20051;-52
2022/03/25 03:23:36;;;;;;;73.57;32.47;;;;;;;13.32;57.45;102837.41;5080553;28;20037;-55
2022/03/25 03:26:01;;;;;;;72.77;32.33;;;;;;;13.14;58.75;102831.31;5091437;28;20040;-53
2022/03/25 03:28:27;;;;;;;76.60;33.05;;;;;;;13.24;58.36;102832.03;5074996;28;20206;-54
2022/03/25 03:30:52;;;;;;;73.83;32.07;;;;;;;13.20;58.52;102831.50;5083725;28;20037;-54
2022/03/25 03:33:18;;;;;;;75.97;32.47;;;;;;;13.09;59.44;102833.66;5082706;28;20040;-54
2022/03/25 03:35:44;;;;;;;69.83;31.30;;;;;;;12.52;65.64;102829.75;5090495;28;20107;-53
2022/03/25 03:38:09;;;;;;;84.45;33.15;;;;;;;12.72;62.40;102839.25;5077758;28;20297;-53
2022/03/25 03:40:34;;;;;;;84.87;36.27;;;;;;;13.18;60.64;102840.75;5088881;28;20123;-53
2022/03/25 03:43:03;;;;;;;85.15;35.08;;;;;;;13.05;62.13;102842.03;5084608;28;20032;-56
2022/03/25 03:45:29;;;;;;;79.68;34.78;;;;;;;12.95;63.30;102838.66;5081096;28;20041;-53
2022/03/25 03:47:54;;;;;;;81.38;34.60;;;;;;;12.92;63.37;102839.00;5091260;28;20036;-56
2022/03/25 03:50:20;;;;;;;80.37;33.83;;;;;;;12.97;63.75;102839.34;5078802;28;20135;-52
2022/03/25 03:52:45;;;;;;;76.40;34.63;;;;;;;12.50;70.08;102839.78;5087021;28;20037;-54
2022/03/25 03:55:12;;;;;;;76.17;34.17;;;;;;;12.82;67.14;102836.44;5085907;28;20045;-55
2022/03/25 03:57:38;;;;;;;80.95;36.92;;;;;;;12.98;65.22;102837.47;5079307;28;20068;-55
2022/03/25 04:00:06;;;;;;;83.38;36.25;;;;;;;12.83;66.21;102834.56;5082781;28;20032;-54
2022/03/25 04:02:39;;;;;;;86.50;37.42;;;;;;;12.81;67.72;102834.75;5080458;28;20040;-57
2022/03/25 04:05:05;;;;;;;99.63;40.20;;;;;;;12.75;68.89;102843.44;5084257;28;20124;-55
2022/03/25 04:07:31;;;;;;;89.32;39.17;;;;;;;12.68;70.87;102842.41;5088240;28;20040;-52
2022/03/25 04:09:56;;;;;;;90.03;41.37;;;;;;;12.61;71.71;102837.69;5077391;28;20048;-52
2022/03/25 04:12:22;;;;;;;92.18;40.17;;;;;;;12.65;71.53;102848.09;5090340;28;20561;-53
2022/03/25 04:14:48;;;;;;;91.30;41.97;;;;;;;12.67;71.84;102840.72;5082218;28;20036;-54
2022/03/25 04:17:13;;;;;;;96.85;40.55;;;;;;;12.67;71.68;102846.09;5082891;28;20079;-51
2022/03/25 04:19:39;;;;;;;100.95;42.33;;;;;;;12.67;71.95;102846.09;5089249;28;20106;-52
2022/03/25 04:22:06;;;;;;;100.27;44.00;;;;;;;12.69;71.83;102844.94;5077776;28;20049;-51
2022/03/25 04:24:32;;;;;;;103.55;43.35;;;;;;;12.57;73.58;102844.38;5094548;28;20037;-53
2022/03/25 04:26:58;;;;;;;99.20;41.95;;;;;;;12.57;74.35;102848.88;5084313;28;20032;-52
2022/03/25 04:29:23;;;;;;;98.43;41.07;;;;;;;12.63;73.56;102845.56;5086780;28;20123;-52
2022/03/25 04:31:48;;;;;;;98.37;43.43;;;;;;;12.62;73.97;102851.91;5078065;28;20033;-52
2022/03/25 04:34:14;;;;;;;96.10;41.47;;;;;;;12.32;76.67;102852.25;5090746;28;20100;-52
2022/03/25 04:36:40;;;;;;;99.22;42.97;;;;;;;12.57;74.57;102851.56;5080935;28;20040;-54
2022/03/25 04:39:05;;;;;;;95.87;42.87;;;;;;;12.57;74.54;102857.78;5083955;28;20041;-51
2022/03/25 04:41:31;;;;;;;98.75;43.47;;;;;;;12.42;76.36;102849.47;5087152;28;20029;-55
2022/03/25 04:43:56;;;;;;;102.40;42.53;;;;;;;11.97;84.71;102862.03;5077291;28;20108;-54
2022/03/25 04:46:22;;;;;;;98.70;43.53;;;;;;;11.97;85.08;102858.50;5089949;28;20045;-53
2022/03/25 04:48:47;;;;;;;106.57;43.13;;;;;;;12.09;82.68;102851.06;5081565;28;20025;-53
2022/03/25 04:51:12;;;;;;;98.03;43.10;;;;;;;12.18;81.97;102858.19;5082682;28;20130;-55
2022/03/25 04:53:38;;;;;;;100.93;44.65;;;;;;;12.17;81.68;102857.34;5088796;28;20036;-55
2022/03/25 04:56:04;;;;;;;104.40;43.70;;;;;;;12.14;82.93;102854.16;5077483;28;20040;-54
2022/03/25 04:58:30;;;;;;;111.10;43.78;;;;;;;12.16;82.24;102855.66;5088454;28;20053;-53
2022/03/25 05:00:56;;;;;;;108.30;47.80;;;;;;;12.09;83.44;102853.75;5082686;28;20096;-54
2022/03/25 05:03:22;;;;;;;109.85;46.38;;;;;;;12.00;84.16;102860.88;5081420;28;20072;-54
2022/03/25 05:05:48;;;;;;;108.45;45.22;;;;;;;12.07;83.85;102861.13;5090062;28;20060;-56
2022/03/25 05:08:15;;;;;;;110.72;46.40;;;;;;;12.02;83.90;102857.06;5077024;28;20036;-54
2022/03/25 05:10:40;;;;;;;;;;;;;;;11.88;85.64;102858.44;5087557;28;20047;-55
2022/03/25 05:13:07;;;;;;;103.77;44.83;;;;;;;11.74;90.09;102858.97;5085739;28;20295;-52
2022/03/25 05:15:33;;;;;;;116.20;46.55;;;;;;;11.97;86.00;102866.53;5083605;28;20052;-56
2022/03/25 05:17:58;;;;;;;102.67;45.77;;;;;;;12.02;85.43;102866.97;5093799;28;20041;-56
2022/03/25 05:20:27;;;;;;;113.50;46.93;;;;;;;11.96;85.70;102864.84;5081786;28;20041;-53
2022/03/25 05:22:52;;;;;;;108.50;45.63;;;;;;;12.00;85.66;102860.88;5089167;28;20055;-50
2022/03/25 05:25:19;;;;;;;111.43;46.60;;;;;;;11.93;86.89;102867.84;5089052;28;20028;-55
2022/03/25 05:27:53;;;;;;;105.55;44.63;;;;;;;11.91;86.59;102863.47;5081774;28;20134;-54
2022/03/25 05:30:24;;;;;;;109.30;44.85;;;;;;;11.92;87.10;102872.38;5064361;28;20033;-53
2022/03/25 05:32:50;;;;;;;105.95;46.72;;;;;;;11.88;87.42;102874.53;5089593;28;20066;-55
2022/03/25 05:35:16;;;;;;;106.13;45.88;;;;;;;11.79;88.73;102879.97;5088539;28;20063;-54
2022/03/25 05:37:42;;;;;;;114.55;47.55;;;;;;;11.95;86.70;102881.94;5081943;28;20041;-53
2022/03/25 05:40:09;;;;;;;114.85;47.30;;;;;;;12.02;86.02;102881.19;5093173;28;20039;-51
2022/03/25 05:42:35;;;;;;;117.35;47.92;;;;;;;12.04;86.40;102883.75;5082873;28;20036;-52
2022/03/25 05:45:02;;;;;;;111.95;47.58;;;;;;;11.95;88.23;102880.13;5087838;28;20039;-55
2022/03/25 05:47:28;;;;;;;103.53;47.45;;;;;;;11.69;91.54;102880.03;5075644;28;20037;-52
2022/03/25 05:49:54;;;;;;;117.32;49.90;;;;;;;11.72;91.70;102885.94;5093319;28;20096;-52
2022/03/25 05:52:19;;;;;;;125.17;48.50;;;;;;;11.66;93.77;102891.91;5070300;28;20044;-55
2022/03/25 05:54:45;;;;;;;110.63;46.50;;;;;;;11.73;93.49;102890.31;5083564;28;20047;-54
2022/03/25 05:57:11;;;;;;;111.78;47.03;;;;;;;11.69;94.05;102896.13;5085978;28;20052;-53
2022/03/25 05:59:36;;;;;;;113.17;46.93;;;;;;;11.70;94.20;102897.78;5090661;28;20060;-53
2022/03/25 06:02:02;;;;;;;115.37;46.10;;;;;;;11.69;95.13;102890.75;5079867;28;20040;-54
2022/03/25 06:04:28;;;;;;;123.05;49.33;;;;;;;11.59;96.95;102894.34;5091885;28;20040;-53
2022/03/25 06:06:53;;;;;;;121.93;50.10;;;;;;;11.68;96.48;102892.59;5084382;28;20040;-56
2022/03/25 06:09:19;;;;;;;127.07;48.17;;;;;;;11.76;95.23;102891.81;5084690;28;20037;-52
2022/03/25 06:11:45;;;;;;;117.00;48.88;;;;;;;11.81;94.69;102888.69;5091802;28;20040;-53
2022/03/25 06:14:10;;;;;;;136.17;53.60;;;;;;;11.83;94.23;102906.31;5079658;28;20105;-55
2022/03/25 06:16:36;;;;;;;115.70;47.80;;;;;;;11.89;93.47;102897.66;5090849;28;20037;-53
2022/03/25 06:19:01;;;;;;;124.93;51.13;;;;;;;11.87;94.27;102907.69;5079119;28;20067;-54
2022/03/25 06:21:27;;;;;;;117.53;52.03;;;;;;;11.86;94.72;102903.31;5088828;28;20277;-51
2022/03/25 06:23:53;;;;;;;120.78;49.67;;;;;;;11.88;94.53;102905.88;5079491;28;20096;-52
2022/03/25 06:26:18;;;;;;;120.40;49.87;;;;;;;11.97;93.04;102902.25;5092761;28;20048;-54
2022/03/25 06:28:44;;;;;;;124.32;47.67;;;;;;;12.05;91.66;102906.88;5083080;28;20118;-50
2022/03/25 06:31:09;;;;;;;122.50;49.07;;;;;;;12.06;90.97;102900.53;5085864;28;20044;-52
2022/03/25 06:33:37;;;;;;;127.60;49.93;;;;;;;12.18;91.02;102906.47;5089764;28;20276;-51
2022/03/25 06:36:04;;;;;;;123.57;52.20;;;;;;;12.23;90.30;102906.03;5079445;28;20047;-54
2022/03/25 06:38:29;;;;;;;128.52;53.17;;;;;;;12.26;90.40;102913.75;5091153;28;20063;-54
2022/03/25 06:40:54;;;;;;;122.67;52.33;;;;;;;12.23;89.92;102914.91;5083924;28;20032;-53
2022/03/25 06:43:20;;;;;;;122.73;51.10;;;;;;;12.42;88.93;102921.09;5083122;28;20097;-55
2022/03/25 06:45:46;;;;;;;118.47;49.67;;;;;;;12.45;88.04;102913.53;5076394;28;20062;-53
2022/03/25 06:48:12;;;;;;;121.55;51.65;;;;;;;12.52;87.70;102916.44;5092282;28;20055;-50
2022/03/25 06:50:37;;;;;;;118.93;53.73;;;;;;;12.62;86.37;102917.19;5081386;28;20059;-52
2022/03/25 06:53:04;;;;;;;116.25;49.60;;;;;;;12.70;85.02;102910.19;5085602;28;20281;-55
2022/03/25 06:55:30;;;;;;;118.95;50.30;;;;;;;12.72;83.97;102919.78;5088385;28;20060;-55
2022/03/25 06:57:56;;;;;;;111.47;48.40;;;;;;;12.72;82.28;102925.16;5078635;28;20051;-54
2022/03/25 07:00:22;;;;;;;111.95;49.58;;;;;;;12.81;81.74;102928.72;5062591;28;20277;-53
2022/03/25 07:02:49;;;;;;;108.63;45.90;;;;;;;12.83;80.75;102929.41;5088232;28;20051;-53
2022/03/25 07:05:15;;;;;;;111.30;49.35;;;;;;;12.88;81.15;102940.50;5086329;28;20052;-52
2022/03/25 07:07:42;;;;;;;111.50;48.08;;;;;;;12.95;81.60;102931.81;5080889;28;20109;-51
2022/03/25 07:10:11;;;;;;;119.03;49.73;;;;;;;13.03;80.83;102935.38;5091541;28;20096;-55
2022/03/25 07:12:39;;;;;;;115.57;49.15;;;;;;;13.10;79.08;102932.03;5080754;28;20036;-53
2022/03/25 07:15:07;;;;;;;95.80;40.92;;;;;;;13.19;76.30;102944.53;5095352;28;20040;-54
2022/03/25 07:17:33;;;;;;;78.60;34.22;;;;;;;13.31;71.69;102937.84;5081848;28;20037;-53
2022/03/25 07:20:00;;;;;;;105.05;47.55;;;;;;;13.43;73.33;102948.34;5091193;28;20036;-54
2022/03/25 07:22:27;;;;;;;101.38;46.25;;;;;;;13.48;71.85;102946.00;5078990;28;20067;-51
2022/03/25 07:24:52;;;;;;;105.68;46.33;;;;;;;13.50;71.21;102945.84;5087093;28;20037;-53
2022/03/25 07:27:18;;;;;;;96.87;43.80;;;;;;;13.59;68.38;102947.53;5085811;28;20067;-53
2022/03/25 07:29:43;;;;;;;98.23;45.33;;;;;;;13.68;69.56;102951.09;5079804;28;20035;-55
2022/03/25 07:32:09;;;;;;;99.83;42.50;;;;;;;13.69;70.69;102955.47;5091269;28;20096;-52
2022/03/25 07:34:36;;;;;;;92.97;40.00;;;;;;;13.90;67.28;102960.38;5080046;28;20041;-52
2022/03/25 07:37:03;;;;;;;76.50;35.85;;;;;;;13.96;63.25;102962.41;5085113;28;20025;-53
2022/03/25 07:39:29;;;;;;;;;;;;;;;13.98;68.14;102962.25;5087313;28;20033;-53
2022/03/25 07:41:54;;;;;;;96.43;43.80;;;;;;;14.05;68.62;102968.63;5078451;28;19943;-57
2022/03/25 07:44:20;;;;;;;108.95;47.38;;;;;;;14.15;69.23;102969.31;5090940;28;20104;-56
2022/03/25 07:46:46;;;;;;;112.75;49.10;;;;;;;14.36;66.56;102969.81;5081426;28;20061;-53
2022/03/25 07:49:12;;;;;;;125.25;50.35;;;;;;;14.48;67.65;102974.69;5084431;28;20036;-56
2022/03/25 07:51:38;;;;;;;116.30;50.33;;;;;;;14.61;67.16;102973.34;5088335;28;20052;-56
2022/03/25 07:54:03;;;;;;;104.97;50.13;;;;;;;14.76;66.34;102976.22;5077760;28;20155;-50
2022/03/25 07:56:29;;;;;;;99.47;46.58;;;;;;;14.76;64.79;102971.69;5089740;28;20029;-55
2022/03/25 07:58:55;;;;;;;94.73;40.13;;;;;;;14.98;63.21;102977.34;5081984;28;20074;-51
2022/03/25 08:01:20;;;;;;;89.20;40.17;;;;;;;15.08;59.78;102979.00;5083216;28;20044;-52
2022/03/25 08:03:45;;;;;;;104.43;46.73;;;;;;;14.86;64.04;102981.41;5089161;28;20269;-56
2022/03/25 08:06:14;;;;;;;87.43;41.38;;;;;;;15.22;59.64;102986.34;5076157;28;20040;-53
2022/03/25 08:08:40;;;;;;;80.25;38.53;;;;;;;15.36;57.28;102984.81;5075152;28;20029;-53
2022/03/25 08:11:06;;;;;;;95.87;45.97;;;;;;;15.29;58.03;102983.81;5075190;28;20056;-51
2022/03/25 08:13:32;;;;;;;92.38;43.67;;;;;;;15.51;57.59;102982.22;5075096;28;20063;-54
2022/03/25 08:15:58;;;;;;;76.18;36.28;;;;;;;15.74;55.91;102982.25;5075205;28;20109;-51
2022/03/25 08:18:24;;;;;;;91.60;44.23;;;;;;;15.68;55.96;102982.09;5076789;28;20041;-52
2022/03/25 08:20:50;;;;;;;75.38;37.45;;;;;;;15.70;53.97;102989.00;5074924;28;20303;-55
2022/03/25 08:28:48;;;;;;;64.43;32.88;;;;;;;16.15;52.32;103010.88;5073703;28;20056;-51
2022/03/25 08:31:13;;;;;;;79.10;37.03;;;;;;;16.30;51.47;103005.53;5074843;28;20028;-54
2022/03/25 08:33:39;;;;;;;101.40;46.30;;;;;;;16.41;51.72;103019.59;5074825;28;20033;-56
2022/03/25 08:36:04;;;;;;;78.97;39.27;;;;;;;16.47;50.85;103027.81;5076024;28;20048;-53
2022/03/25 08:38:30;;;;;;;82.77;42.63;;;;;;;16.80;51.26;103020.44;5075538;28;20286;-56
2022/03/25 08:40:55;;;;;;;94.30;45.93;;;;;;;16.90;50.93;103027.25;5075047;28;20388;-56
2022/03/25 08:43:20;;;;;;;100.77;48.67;;;;;;;17.10;50.68;103031.34;5074764;28;20029;-57
2022/03/25 08:45:46;;;;;;;85.23;42.73;;;;;;;17.21;48.96;103038.97;5075011;28;20053;-58
2022/03/25 08:48:12;;;;;;;85.70;41.00;;;;;;;17.32;47.31;103035.81;5076779;28;20044;-57
2022/03/25 08:50:37;;;;;;;87.73;42.53;;;;;;;17.56;46.78;103030.28;5078953;28;20037;-54
2022/03/25 08:53:05;;;;;;;86.72;41.65;;;;;;;17.65;46.49;103022.88;5078603;28;20033;-55
2022/03/25 08:55:31;;;;;;;41.27;21.27;;;;;;;17.90;45.32;103029.63;5078236;28;20105;-57
2022/03/25 08:57:57;;;;;;;63.75;32.95;;;;;;;18.28;45.17;103025.88;5075733;28;20290;-56
2022/03/25 09:00:22;;;;;;;66.97;35.65;;;;;;;18.75;44.19;103028.13;5079671;28;20063;-54
2022/03/25 09:02:48;;;;;;;63.50;33.67;;;;;;;18.96;42.90;103029.13;5078355;28;20093;-54
2022/03/25 09:05:14;;;;;;;76.15;39.05;;;;;;;19.60;42.17;103027.19;5078431;28;20442;-55
2022/03/25 09:07:41;;;;;;;83.10;43.72;;;;;;;20.05;41.86;103032.13;5077533;28;20092;-56
2022/03/25 09:10:08;;;;;;;58.55;31.20;;;;;;;20.45;39.67;103034.91;5079020;28;20036;-55
2022/03/25 09:12:34;;;;;;;44.37;24.77;;;;;;;21.23;37.97;103034.41;5090751;28;20111;-57
2022/03/25 09:15:00;;;;;;;72.25;36.92;;;;;;;21.57;37.91;103044.13;5085120;28;20269;-55
2022/03/25 09:17:26;;;;;;;47.72;27.17;;;;;;;22.03;36.64;103038.69;5085267;28;20060;-53
2022/03/25 09:19:52;;;;;;;68.13;35.38;;;;;;;22.73;35.17;103039.63;5076063;28;20033;-56
2022/03/25 09:22:17;;;;;;;78.93;40.88;;;;;;;23.09;34.09;103043.44;5077961;28;20044;-55
2022/03/25 09:24:43;;;;;;;72.25;39.67;;;;;;;23.19;33.82;103038.31;5077369;28;20096;-58
2022/03/25 09:27:09;;;;;;;45.13;26.02;;;;;;;23.79;32.23;103041.38;5076460;28;20047;-54
2022/03/25 09:29:34;;;;;;;66.18;36.15;;;;;;;24.21;31.24;103037.81;5075949;28;20032;-57
2022/03/25 09:32:00;;;;;;;72.65;37.88;;;;;;;25.08;30.21;103054.66;5076394;28;20029;-57
2022/03/25 09:37:09;;;;;;;43.33;22.80;;;;;;;25.27;29.83;103059.97;5076571;28;20043;-55
2022/03/25 09:39:35;;;;;;;60.42;33.78;;;;;;;25.38;28.64;103055.53;5076057;28;20096;-56
2022/03/25 09:42:01;;;;;;;52.60;31.25;;;;;;;26.00;28.10;103057.56;5081507;28;20033;-60
2022/03/25 09:44:26;;;;;;;54.75;30.23;;;;;;;26.27;27.62;103050.63;5089473;28;20039;-56
2022/03/25 09:46:52;;;;;;;76.28;35.35;;;;;;;26.05;27.53;103054.06;5083054;28;20036;-52
2022/03/25 09:49:18;;;;;;;58.85;32.78;;;;;;;26.95;26.10;103045.09;5085196;28;20092;-55
2022/03/25 09:51:44;;;;;;;59.73;30.80;;;;;;;26.87;26.52;103048.28;5090378;28;20029;-58
2022/03/25 09:54:14;;;;;;;56.83;31.60;;;;;;;27.57;25.87;103059.63;5079732;28;20043;-58
2022/03/25 09:56:40;;;;;;;50.00;27.67;;;;;;;27.61;25.78;103055.25;5091221;28;20024;-55
2022/03/25 09:59:07;;;;;;;43.73;25.63;;;;;;;27.94;25.86;103060.81;5077510;28;20033;-53
2022/03/25 10:01:34;;;;;;;44.17;26.80;;;;;;;28.10;25.31;103053.53;5088765;28;20033;-56
2022/03/25 10:03:59;;;;;;;53.17;28.67;;;;;;;28.79;24.80;103056.56;5079792;28;20096;-54
2022/03/25 10:06:25;;;;;;;;;;;;;;;28.73;24.10;103055.66;5081323;28;20024;-54
2022/03/25 10:09:02;;;;;;;37.43;21.03;;;;;;;28.51;24.89;103057.72;5078043;28;20014;-55
2022/03/25 10:11:31;;;;;;;50.43;28.93;;;;;;;28.97;24.16;103052.53;5084399;28;20037;-55
2022/03/25 10:14:18;;;;;;;49.80;30.10;;;;;;;29.21;23.48;103054.81;5091306;28;20033;-55
2022/03/25 10:16:45;;;;;;;50.90;29.02;;;;;;;29.80;23.29;103055.56;5076040;28;20063;-57
2022/03/25 10:19:15;;;;;;;46.20;28.40;;;;;;;30.06;23.23;103058.38;5086326;28;20044;-53
2022/03/25 10:21:53;;;;;;;55.33;29.30;;;;;;;30.47;24.08;103060.28;5089437;28;20047;-55
2022/03/25 10:24:43;;;;;;;60.45;35.33;;;;;;;30.42;22.05;103057.53;5078709;28;20033;-51
2022/03/25 10:27:09;;;;;;;36.70;21.13;;;;;;;30.98;23.31;103059.34;5086913;28;20036;-53
2022/03/25 10:29:35;;;;;;;44.47;27.05;;;;;;;30.42;22.27;103055.56;5088323;28;20037;-52
2022/03/25 10:32:24;;;;;;;18.67;11.57;;;;;;;30.65;23.07;103049.78;5079901;28;20040;-54
2022/03/25 10:35:07;;;;;;;37.15;23.33;;;;;;;30.85;23.11;103048.88;5068252;28;20039;-54
2022/03/25 10:37:33;;;;;;;49.80;28.15;;;;;;;31.27;22.05;103055.13;5072412;28;20619;-50
2022/03/25 10:39:59;;;;;;;36.33;21.70;;;;;;;31.37;21.49;103052.28;5079833;28;20060;-53
2022/03/25 10:42:24;;;;;;;127.95;77.22;;;;;;;30.85;23.04;103043.34;5091822;28;20134;-55
2022/03/25 10:44:50;;;;;;;131.52;81.47;;;;;;;31.13;21.48;103049.31;5075580;28;20100;-55
2022/03/25 10:47:15;;;;;;;57.13;36.10;;;;;;;31.61;20.94;103046.91;5085310;28;20048;-54
2022/03/25 10:49:43;;;;;;;85.30;51.40;;;;;;;32.41;20.73;103057.91;5080934;28;20029;-52
2022/03/25 10:52:23;;;;;;;130.35;65.05;;;;;;;33.06;19.97;103049.44;5074566;28;20036;-52
2022/03/25 10:54:49;;;;;;;105.88;57.47;;;;;;;33.79;19.78;103052.84;5078610;28;20036;-54
2022/03/25 10:57:17;;;;;;;90.22;49.05;;;;;;;34.00;19.20;103058.09;5085466;28;20047;-50
2022/03/25 10:59:43;;;;;;;53.65;29.33;;;;;;;34.05;18.74;103060.75;5087615;28;20036;-52
2022/03/25 11:02:11;;;;;;;67.50;37.25;;;;;;;34.18;18.55;103051.66;5078610;28;20053;-49
2022/03/25 11:04:37;;;;;;;87.57;46.08;;;;;;;34.78;18.04;103057.50;5091177;28;20032;-56
2022/03/25 11:07:02;;;;;;;43.47;28.98;;;;;;;33.85;17.94;103054.41;5082697;28;20047;-56
2022/03/25 11:09:30;;;;;;;103.55;53.70;;;;;;;34.41;19.10;103045.41;5082947;28;20105;-55
2022/03/25 11:11:58;;;;;;;99.53;47.10;;;;;;;35.09;19.09;103040.19;5084471;28;20036;-53
2022/03/25 11:14:24;;;;;;;118.32;58.65;;;;;;;35.17;18.60;103042.22;5078301;28;20123;-54